Time;durP1;ratioP1;P1;durP2;ratioP2;P2;SDS_P1;SDS_P2;PMS_P1;PMS_P2;Temp;Humidity;BMP_temperature;BMP_pressure;BME280_temperature;BME280_humidity;BME280_pressure;Samples;Min_cycle;Max_cycle;Signal;HPM_P1;HPM_P2
2024/02/16 00:00:59;;;;;;;1.05;0.68;;;13.40;99.90;;;;;;4814243;29;20601;-83
2024/02/16 00:03:27;;;;;;;0.90;0.77;;;13.30;99.90;;;;;;4821276;29;20257;-82
2024/02/16 00:05:54;;;;;;;0.65;0.52;;;13.30;99.90;;;;;;4813878;29;20061;-81
2024/02/16 00:08:21;;;;;;;0.40;0.40;;;13.30;99.90;;;;;;4814053;29;20562;-81
2024/02/16 00:10:48;;;;;;;0.73;0.68;;;13.30;99.90;;;;;;4812659;29;20050;-82
2024/02/16 00:13:15;;;;;;;0.68;0.60;;;13.20;99.90;;;;;;4826197;29;20065;-82
2024/02/16 00:15:42;;;;;;;0.80;0.80;;;13.20;99.90;;;;;;4813523;29;20414;-81
2024/02/16 00:18:09;;;;;;;0.60;0.60;;;13.20;99.90;;;;;;4814017;29;20107;-82
2024/02/16 00:20:36;;;;;;;0.63;0.60;;;13.20;99.90;;;;;;4814835;29;20051;-82
2024/02/16 00:23:03;;;;;;;0.85;0.77;;;13.30;99.90;;;;;;4820648;29;20111;-81
2024/02/16 00:25:29;;;;;;;0.70;0.65;;;13.30;99.90;;;;;;4813665;29;20561;-83
2024/02/16 00:27:56;;;;;;;0.88;0.77;;;13.30;99.90;;;;;;4813562;29;20058;-82
2024/02/16 00:30:25;;;;;;;1.30;0.98;;;13.40;99.90;;;;;;4814714;29;20062;-81
2024/02/16 00:32:52;;;;;;;1.42;0.88;;;13.40;99.90;;;;;;4812856;29;20058;-81
2024/02/16 00:35:19;;;;;;;0.80;0.70;;;13.40;99.90;;;;;;4815990;29;20130;-82
2024/02/16 00:37:46;;;;;;;1.48;0.60;;;13.50;99.90;;;;;;4813389;29;20101;-81
2024/02/16 00:40:13;;;;;;;0.85;0.75;;;13.50;99.90;;;;;;4814180;29;20503;-82
2024/02/16 00:42:40;;;;;;;1.00;0.90;;;13.50;99.90;;;;;;4812796;29;20074;-83
2024/02/16 00:45:08;;;;;;;0.60;0.60;;;13.60;99.90;;;;;;4813498;29;20467;-83
2024/02/16 00:47:36;;;;;;;0.93;0.80;;;13.60;99.90;;;;;;4813038;29;20728;-82
2024/02/16 00:50:05;;;;;;;1.00;0.70;;;13.50;99.90;;;;;;4798381;29;20050;-83
2024/02/16 00:52:33;;;;;;;0.73;0.63;;;13.60;99.90;;;;;;4819032;29;20068;-81
2024/02/16 00:55:00;;;;;;;0.98;0.80;;;13.60;99.90;;;;;;4823667;29;20148;-82
2024/02/16 00:57:26;;;;;;;1.92;0.98;;;13.60;99.90;;;;;;4830357;29;20435;-82
2024/02/16 00:59:54;;;;;;;0.50;0.50;;;13.60;99.90;;;;;;4831364;29;20153;-82
2024/02/16 01:02:22;;;;;;;0.82;0.77;;;13.60;99.90;;;;;;4831779;29;20129;-82
2024/02/16 01:04:51;;;;;;;1.40;0.85;;;13.60;99.90;;;;;;4822057;29;20056;-80
2024/02/16 01:07:18;;;;;;;0.95;0.68;;;13.60;99.90;;;;;;4814630;29;20197;-83
2024/02/16 01:09:45;;;;;;;0.93;0.77;;;13.60;99.90;;;;;;4813144;29;20989;-82
2024/02/16 01:12:12;;;;;;;1.40;0.90;;;13.70;99.90;;;;;;4813085;29;20490;-82
2024/02/16 01:14:39;;;;;;;0.85;0.82;;;13.70;99.90;;;;;;4816497;29;20054;-81
2024/02/16 01:17:06;;;;;;;0.70;0.70;;;13.70;99.90;;;;;;4814087;29;20089;-81
2024/02/16 01:19:33;;;;;;;0.80;0.68;;;13.70;99.90;;;;;;4812969;29;20074;-83
2024/02/16 01:22:00;;;;;;;1.15;0.75;;;13.70;99.90;;;;;;4816110;29;20077;-82
2024/02/16 01:24:27;;;;;;;0.70;0.60;;;13.70;99.90;;;;;;4830688;29;20458;-82
2024/02/16 01:26:54;;;;;;;0.88;0.80;;;13.70;99.90;;;;;;4829981;29;20115;-81
2024/02/16 01:29:21;;;;;;;2.15;0.93;;;13.70;99.90;;;;;;4832122;29;20064;-83
2024/02/16 01:31:48;;;;;;;1.50;1.02;;;13.80;99.90;;;;;;4831338;29;20045;-82
2024/02/16 01:34:15;;;;;;;1.08;0.98;;;13.70;99.90;;;;;;4823419;29;20050;-83
2024/02/16 01:36:42;;;;;;;1.23;0.98;;;13.70;99.90;;;;;;4830555;29;20316;-82
2024/02/16 01:39:09;;;;;;;1.10;1.00;;;13.80;99.90;;;;;;4832151;29;20077;-82
2024/02/16 01:41:39;;;;;;;0.90;0.65;;;13.80;99.90;;;;;;4829764;29;20114;-81
2024/02/16 01:44:06;;;;;;;1.00;0.85;;;13.80;99.90;;;;;;4821381;29;20062;-82
2024/02/16 01:46:33;;;;;;;2.15;1.17;;;13.80;99.90;;;;;;4814080;29;20186;-81
2024/02/16 01:49:01;;;;;;;1.42;1.27;;;13.70;99.90;;;;;;4813160;29;20050;-83
2024/02/16 01:51:29;;;;;;;2.00;1.10;;;13.70;99.90;;;;;;4812611;29;20066;-83
2024/02/16 01:53:56;;;;;;;0.95;0.90;;;13.60;99.90;;;;;;4814222;29;20054;-83
2024/02/16 01:56:26;;;;;;;1.27;0.82;;;13.60;99.90;;;;;;4829035;29;20138;-82
2024/02/16 01:58:53;;;;;;;1.20;1.10;;;13.60;99.90;;;;;;4816108;29;20045;-83
2024/02/16 02:01:20;;;;;;;1.10;0.80;;;13.60;99.90;;;;;;4830959;29;20548;-82
2024/02/16 02:03:47;;;;;;;1.38;1.08;;;13.60;99.90;;;;;;4828737;29;20060;-83
2024/02/16 02:06:15;;;;;;;1.10;1.00;;;13.60;99.90;;;;;;4813995;29;20553;-83
2024/02/16 02:08:42;;;;;;;1.88;1.00;;;13.50;99.90;;;;;;4812530;29;20165;-82
2024/02/16 02:11:10;;;;;;;1.77;1.20;;;13.50;99.90;;;;;;4811630;29;20107;-83
2024/02/16 02:13:38;;;;;;;1.40;1.13;;;13.50;99.90;;;;;;4814672;29;20097;-81
2024/02/16 02:16:06;;;;;;;1.23;1.10;;;13.50;99.90;;;;;;4812561;29;20099;-83
2024/02/16 02:18:33;;;;;;;0.90;0.80;;;13.50;99.90;;;;;;4812811;29;20047;-83
2024/02/16 02:21:00;;;;;;;1.42;0.93;;;13.50;99.90;;;;;;4813452;29;20087;-82
2024/02/16 02:23:28;;;;;;;1.30;0.80;;;13.50;99.90;;;;;;4813184;29;20050;-82
2024/02/16 02:25:55;;;;;;;0.80;0.70;;;13.40;99.90;;;;;;4812418;29;20169;-82
2024/02/16 02:28:23;;;;;;;1.40;1.10;;;13.40;99.90;;;;;;4797279;29;20055;-83
2024/02/16 02:30:50;;;;;;;1.50;1.15;;;13.30;99.90;;;;;;4818771;29;20061;-83
2024/02/16 02:33:18;;;;;;;1.85;1.42;;;13.30;99.90;;;;;;4832601;29;20463;-83
2024/02/16 02:35:45;;;;;;;1.73;1.25;;;13.20;99.90;;;;;;4834474;29;20058;-83
2024/02/16 02:38:12;;;;;;;1.70;1.40;;;13.20;99.90;;;;;;4833851;29;20076;-83
2024/02/16 02:40:40;;;;;;;1.75;1.27;;;13.20;99.90;;;;;;4832620;29;20057;-81
2024/02/16 02:43:08;;;;;;;1.02;0.80;;;13.20;99.90;;;;;;4834283;29;20853;-83
2024/02/16 02:45:35;;;;;;;1.52;1.35;;;13.20;99.90;;;;;;4834649;29;20203;-83
2024/02/16 02:48:02;;;;;;;1.58;1.15;;;13.10;99.90;;;;;;4834652;29;20085;-82
2024/02/16 02:50:31;;;;;;;1.67;1.35;;;13.10;99.90;;;;;;4833605;29;20152;-83
2024/02/16 02:52:58;;;;;;;1.52;1.25;;;13.10;99.90;;;;;;4827338;29;20069;-83
2024/02/16 02:55:26;;;;;;;1.25;1.05;;;13.10;99.90;;;;;;4813881;29;20082;-83
2024/02/16 02:57:53;;;;;;;1.60;1.38;;;13.10;99.90;;;;;;4816172;29;20058;-82
2024/02/16 03:00:20;;;;;;;1.65;1.20;;;13.10;99.90;;;;;;4815284;29;20115;-82
2024/02/16 03:02:48;;;;;;;1.60;1.10;;;13.10;99.90;;;;;;4820469;29;20054;-83
2024/02/16 03:05:15;;;;;;;0.90;0.90;;;13.10;99.90;;;;;;4833645;29;20354;-83
2024/02/16 03:07:42;;;;;;;2.42;1.88;;;13.10;99.90;;;;;;4833102;29;20626;-82
2024/02/16 03:10:09;;;;;;;2.30;1.48;;;13.10;99.90;;;;;;4833185;29;20065;-81
2024/02/16 03:12:37;;;;;;;1.83;1.40;;;13.10;99.90;;;;;;4827792;29;20504;-83
2024/02/16 03:15:04;;;;;;;1.30;1.20;;;13.00;99.90;;;;;;4816475;29;20119;-82
2024/02/16 03:17:31;;;;;;;2.17;1.52;;;13.10;99.90;;;;;;4800203;29;20114;-81
2024/02/16 03:19:58;;;;;;;1.30;1.00;;;13.10;99.90;;;;;;4816442;29;20070;-82
2024/02/16 03:22:25;;;;;;;1.70;1.30;;;13.00;99.90;;;;;;4814520;29;20054;-81
2024/02/16 03:24:52;;;;;;;1.48;1.17;;;13.00;99.90;;;;;;4815866;29;20470;-82
2024/02/16 03:27:19;;;;;;;2.10;1.10;;;13.00;99.90;;;;;;4817649;29;20054;-82
2024/02/16 03:29:46;;;;;;;1.35;1.10;;;13.00;99.90;;;;;;4817830;29;20074;-82
2024/02/16 03:32:13;;;;;;;1.60;1.08;;;13.00;99.90;;;;;;4817218;29;20062;-83
2024/02/16 03:34:40;;;;;;;2.78;1.13;;;13.00;99.90;;;;;;4818960;29;20052;-82
2024/02/16 03:37:08;;;;;;;1.05;0.95;;;13.00;99.90;;;;;;4818991;29;20464;-82
2024/02/16 03:39:35;;;;;;;0.88;0.80;;;13.00;99.90;;;;;;4817596;29;20118;-81
2024/02/16 03:42:02;;;;;;;1.63;1.30;;;13.00;99.90;;;;;;4817961;29;20065;-82
2024/02/16 03:44:29;;;;;;;1.13;0.95;;;13.00;99.90;;;;;;4817800;29;20061;-82
2024/02/16 03:46:56;;;;;;;0.90;0.80;;;13.00;99.90;;;;;;4818292;29;20050;-82
2024/02/16 03:49:24;;;;;;;1.33;1.20;;;13.00;99.90;;;;;;4817852;29;20526;-82
2024/02/16 03:51:51;;;;;;;1.10;1.00;;;13.00;99.90;;;;;;4817389;29;20463;-83
2024/02/16 03:54:18;;;;;;;1.45;1.25;;;13.00;99.90;;;;;;4817997;29;20135;-81
2024/02/16 03:56:45;;;;;;;1.17;1.00;;;12.90;99.90;;;;;;4817316;29;20090;-82
2024/02/16 03:59:12;;;;;;;1.42;1.25;;;12.90;99.90;;;;;;4818267;29;20054;-84
2024/02/16 04:01:41;;;;;;;0.93;0.80;;;12.90;99.90;;;;;;4819887;29;20065;-84
2024/02/16 04:04:09;;;;;;;1.60;1.30;;;12.80;99.90;;;;;;4819248;29;20392;-84
2024/02/16 04:06:39;;;;;;;1.17;1.05;;;12.70;99.90;;;;;;4837594;29;20529;-83
2024/02/16 04:09:06;;;;;;;1.05;0.95;;;12.60;99.90;;;;;;4837978;29;20103;-83
2024/02/16 04:11:33;;;;;;;1.35;1.05;;;12.50;99.90;;;;;;4835084;29;20128;-82
2024/02/16 04:14:00;;;;;;;1.10;0.90;;;12.30;99.90;;;;;;4836975;29;20509;-83
2024/02/16 04:16:28;;;;;;;1.15;1.00;;;12.20;99.90;;;;;;4835208;29;20057;-80
2024/02/16 04:18:55;;;;;;;2.13;1.10;;;12.20;99.90;;;;;;4836316;29;20099;-80
2024/02/16 04:21:22;;;;;;;1.20;1.00;;;12.10;99.90;;;;;;4835028;29;20542;-80
2024/02/16 04:23:49;;;;;;;0.80;0.80;;;12.20;99.90;;;;;;4835853;29;20064;-81
2024/02/16 04:26:16;;;;;;;1.15;0.88;;;12.20;99.90;;;;;;4833941;29;20114;-80
2024/02/16 04:28:42;;;;;;;1.20;1.10;;;12.20;99.90;;;;;;4834507;29;20462;-80
2024/02/16 04:31:09;;;;;;;1.10;1.00;;;12.20;99.90;;;;;;4834864;29;20654;-81
2024/02/16 04:33:36;;;;;;;0.93;0.82;;;12.10;99.90;;;;;;4835800;29;20065;-80
2024/02/16 04:36:07;;;;;;;0.90;0.85;;;12.10;99.90;;;;;;4834491;29;20454;-80
2024/02/16 04:38:34;;;;;;;1.50;1.10;;;12.10;99.90;;;;;;4835058;29;20058;-81
2024/02/16 04:41:01;;;;;;;1.08;0.93;;;12.00;99.90;;;;;;4834945;29;20058;-80
2024/02/16 04:43:27;;;;;;;1.40;1.00;;;12.00;99.90;;;;;;4835974;29;20050;-80
2024/02/16 04:45:54;;;;;;;1.30;1.00;;;12.00;99.90;;;;;;4835666;29;20114;-80
2024/02/16 04:48:21;;;;;;;1.25;1.05;;;12.00;99.90;;;;;;4804854;29;20054;-81
2024/02/16 04:50:48;;;;;;;1.00;0.70;;;12.00;99.90;;;;;;4834651;29;20076;-81
2024/02/16 04:53:15;;;;;;;1.77;1.10;;;12.00;99.90;;;;;;4835830;29;20505;-81
2024/02/16 04:55:42;;;;;;;1.80;1.05;;;12.00;99.90;;;;;;4833530;29;20061;-81
2024/02/16 04:58:09;;;;;;;1.33;0.77;;;12.00;99.90;;;;;;4834422;29;20118;-81
2024/02/16 05:00:39;;;;;;;0.90;0.70;;;12.00;99.90;;;;;;4835276;29;20053;-81
2024/02/16 05:03:07;;;;;;;1.35;0.90;;;11.90;99.90;;;;;;4835402;29;20072;-80
2024/02/16 05:05:34;;;;;;;1.95;1.30;;;12.00;99.90;;;;;;4833716;29;20054;-80
2024/02/16 05:08:01;;;;;;;0.93;0.80;;;11.90;99.90;;;;;;4835487;29;20142;-81
2024/02/16 05:10:28;;;;;;;0.88;0.80;;;11.90;99.90;;;;;;4832889;29;20115;-80
2024/02/16 05:12:55;;;;;;;1.23;1.02;;;11.90;99.90;;;;;;4833961;29;20137;-80
2024/02/16 05:15:22;;;;;;;1.00;0.85;;;11.90;99.90;;;;;;4834054;29;20070;-80
2024/02/16 05:17:49;;;;;;;0.65;0.65;;;11.90;99.90;;;;;;4835314;29;20062;-80
2024/02/16 05:20:16;;;;;;;0.77;0.65;;;11.90;99.90;;;;;;4834359;29;20473;-80
2024/02/16 05:22:45;;;;;;;1.15;0.80;;;11.90;99.90;;;;;;4831762;29;20111;-80
2024/02/16 05:25:13;;;;;;;0.60;0.60;;;11.90;99.90;;;;;;4815487;29;20054;-80
2024/02/16 05:27:40;;;;;;;0.55;0.50;;;11.90;99.90;;;;;;4815066;29;20444;-80
2024/02/16 05:30:09;;;;;;;0.85;0.70;;;11.90;99.90;;;;;;4800997;29;20054;-80
2024/02/16 05:32:36;;;;;;;0.70;0.60;;;11.90;99.90;;;;;;4799834;29;20104;-80
2024/02/16 05:35:14;;;;;;;0.70;0.60;;;12.00;99.90;;;;;;4816012;29;20490;-80
2024/02/16 05:37:50;;;;;;;0.73;0.70;;;12.00;99.90;;;;;;4815825;29;20058;-80
2024/02/16 05:40:28;;;;;;;0.57;0.50;;;11.90;99.90;;;;;;4815226;29;20625;-80
2024/02/16 05:42:59;;;;;;;0.70;0.70;;;11.90;99.90;;;;;;4815161;29;20517;-80
2024/02/16 05:45:26;;;;;;;0.55;0.55;;;11.90;99.90;;;;;;4800779;29;20050;-81
2024/02/16 05:47:53;;;;;;;1.13;0.80;;;11.80;99.90;;;;;;4815088;29;20058;-80
2024/02/16 05:50:21;;;;;;;0.90;0.82;;;11.80;99.90;;;;;;4800187;29;20089;-80
2024/02/16 05:52:49;;;;;;;0.73;0.70;;;11.80;99.90;;;;;;4816571;29;20090;-80
2024/02/16 05:55:18;;;;;;;0.88;0.80;;;11.80;99.90;;;;;;4814622;29;20562;-81
2024/02/16 05:57:45;;;;;;;1.00;0.90;;;11.80;99.90;;;;;;4814805;29;20099;-81
2024/02/16 06:00:13;;;;;;;1.42;1.10;;;11.70;99.90;;;;;;4800262;29;20134;-81
2024/02/16 06:02:40;;;;;;;1.20;1.10;;;11.70;99.90;;;;;;4816349;29;20060;-80
2024/02/16 06:05:07;;;;;;;1.50;1.20;;;11.60;99.90;;;;;;4813098;29;20197;-80
2024/02/16 06:07:37;;;;;;;1.50;1.00;;;11.60;99.90;;;;;;4796836;29;20565;-80
2024/02/16 06:10:07;;;;;;;1.70;1.15;;;11.50;99.90;;;;;;4811442;29;20451;-80
2024/02/16 06:12:36;;;;;;;1.83;1.52;;;11.50;99.90;;;;;;4809997;29;20055;-81
2024/02/16 06:15:04;;;;;;;1.00;0.90;;;11.50;99.90;;;;;;4811481;29;20141;-80
2024/02/16 06:17:31;;;;;;;0.60;0.60;;;11.40;99.90;;;;;;4811609;29;20062;-81
2024/02/16 06:19:58;;;;;;;0.95;0.70;;;11.40;99.90;;;;;;4812084;29;20050;-83
2024/02/16 06:22:25;;;;;;;0.93;0.60;;;11.40;99.90;;;;;;4801374;29;20122;-82
2024/02/16 06:24:52;;;;;;;0.55;0.55;;;11.40;99.90;;;;;;4797571;29;20054;-82
2024/02/16 06:27:19;;;;;;;0.57;0.52;;;11.40;99.90;;;;;;4811679;29;20080;-83
2024/02/16 06:29:46;;;;;;;0.70;0.70;;;11.30;99.90;;;;;;4813980;29;20126;-83
2024/02/16 06:32:13;;;;;;;0.50;0.50;;;11.30;99.90;;;;;;4814228;29;20097;-83
2024/02/16 06:34:40;;;;;;;0.52;0.52;;;11.30;99.90;;;;;;4815145;29;20054;-83
2024/02/16 06:37:07;;;;;;;0.40;0.40;;;11.30;99.90;;;;;;4812443;29;20065;-84
2024/02/16 06:39:35;;;;;;;0.40;0.40;;;11.30;99.90;;;;;;4812878;29;20235;-84
2024/02/16 06:42:03;;;;;;;0.63;0.52;;;11.20;99.90;;;;;;4812706;29;20490;-84
2024/02/16 06:44:30;;;;;;;0.47;0.47;;;11.20;99.90;;;;;;4827219;29;20058;-84
2024/02/16 06:46:57;;;;;;;1.73;0.60;;;11.20;99.90;;;;;;4831920;29;20058;-83
2024/02/16 06:49:24;;;;;;;0.40;0.40;;;11.20;99.90;;;;;;4830781;29;20057;-82
2024/02/16 06:51:50;;;;;;;1.30;0.55;;;11.10;99.90;;;;;;4823924;29;20141;-82
2024/02/16 06:54:17;;;;;;;0.50;0.50;;;11.10;99.90;;;;;;4825931;29;20050;-83
2024/02/16 06:56:44;;;;;;;0.45;0.45;;;11.00;99.90;;;;;;4829058;29;20605;-84
2024/02/16 06:59:11;;;;;;;0.40;0.40;;;11.00;99.90;;;;;;4824700;29;20146;-82
2024/02/16 07:01:38;;;;;;;0.90;0.40;;;11.00;99.90;;;;;;4828096;29;20645;-83
2024/02/16 07:04:06;;;;;;;0.55;0.50;;;11.00;99.90;;;;;;4827412;29;20483;-83
2024/02/16 07:06:33;;;;;;;0.68;0.68;;;11.00;99.90;;;;;;4832905;29;20558;-84
2024/02/16 07:09:02;;;;;;;0.95;0.60;;;11.00;99.90;;;;;;4836093;29;20456;-83
2024/02/16 07:11:29;;;;;;;0.52;0.52;;;11.00;99.90;;;;;;4832142;29;20107;-82
2024/02/16 07:13:56;;;;;;;0.40;0.40;;;10.90;99.90;;;;;;4831891;29;20046;-83
2024/02/16 07:16:22;;;;;;;0.50;0.50;;;10.90;99.90;;;;;;4835260;29;20061;-84
2024/02/16 07:18:49;;;;;;;0.40;0.40;;;10.80;99.90;;;;;;4835868;29;20068;-82
2024/02/16 07:21:20;;;;;;;0.40;0.40;;;10.80;99.90;;;;;;4834352;29;20049;-83
2024/02/16 07:23:50;;;;;;;0.60;0.60;;;10.90;99.90;;;;;;4827561;29;20467;-82
2024/02/16 07:26:18;;;;;;;0.50;0.50;;;10.80;99.90;;;;;;4822303;29;20053;-81
2024/02/16 07:28:45;;;;;;;0.30;0.30;;;10.80;99.90;;;;;;4824298;29;20060;-82
2024/02/16 07:31:14;;;;;;;0.60;0.47;;;10.80;99.90;;;;;;4824212;29;20046;-82
2024/02/16 07:33:42;;;;;;;0.30;0.30;;;10.70;99.90;;;;;;4826382;29;20046;-83
2024/02/16 07:36:09;;;;;;;0.40;0.40;;;10.70;99.90;;;;;;4823223;29;20094;-81
2024/02/16 07:38:36;;;;;;;0.40;0.40;;;10.70;99.90;;;;;;4833481;29;20054;-81
2024/02/16 07:41:04;;;;;;;0.45;0.45;;;10.70;99.90;;;;;;4821628;29;20569;-81
2024/02/16 07:43:35;;;;;;;0.43;0.43;;;10.70;99.90;;;;;;4826736;29;20054;-83
2024/02/16 07:46:03;;;;;;;0.40;0.40;;;10.70;99.90;;;;;;4830111;29;20114;-82
2024/02/16 07:48:30;;;;;;;0.40;0.40;;;10.60;99.90;;;;;;4830766;29;20064;-81
2024/02/16 07:51:02;;;;;;;0.50;0.50;;;10.60;99.90;;;;;;4832888;29;20057;-83
2024/02/16 07:53:31;;;;;;;0.52;0.52;;;10.60;99.90;;;;;;4817543;29;20053;-81
2024/02/16 07:55:58;;;;;;;0.43;0.40;;;10.60;99.90;;;;;;4816112;29;20053;-81
2024/02/16 07:58:26;;;;;;;0.50;0.50;;;10.60;99.90;;;;;;4831645;29;20157;-81
2024/02/16 08:00:55;;;;;;;0.70;0.70;;;10.60;99.90;;;;;;4832600;29;20052;-82
2024/02/16 08:03:23;;;;;;;0.63;0.63;;;10.60;99.90;;;;;;4831876;29;20401;-83
2024/02/16 08:05:52;;;;;;;1.05;0.95;;;10.60;99.90;;;;;;4830363;29;20141;-82
2024/02/16 08:08:22;;;;;;;0.40;0.40;;;10.60;99.90;;;;;;4829738;29;20584;-83
2024/02/16 08:10:50;;;;;;;1.40;1.00;;;10.70;99.90;;;;;;4814260;29;20065;-81
2024/02/16 08:13:20;;;;;;;0.88;0.70;;;10.70;99.90;;;;;;4827687;29;20090;-81
2024/02/16 08:15:47;;;;;;;1.48;0.90;;;10.70;99.90;;;;;;4829318;29;20052;-81
2024/02/16 08:18:14;;;;;;;1.23;0.80;;;10.80;99.90;;;;;;4826589;29;20509;-81
2024/02/16 08:20:41;;;;;;;1.52;1.00;;;10.80;99.90;;;;;;4826705;29;20137;-81
2024/02/16 08:23:08;;;;;;;1.05;0.90;;;10.80;99.90;;;;;;4827134;29;20099;-80
2024/02/16 08:25:35;;;;;;;2.55;1.40;;;10.80;99.90;;;;;;4815840;29;20057;-80
2024/02/16 08:28:02;;;;;;;1.60;1.10;;;10.70;99.90;;;;;;4830981;29;20145;-81
2024/02/16 08:30:29;;;;;;;1.75;1.40;;;10.70;99.90;;;;;;4830885;29;20078;-82
2024/02/16 08:32:58;;;;;;;2.42;1.60;;;10.70;99.90;;;;;;4831841;29;20062;-80
2024/02/16 08:35:25;;;;;;;5.15;1.85;;;10.70;99.90;;;;;;4831793;29;20054;-80
2024/02/16 08:37:52;;;;;;;3.33;1.92;;;10.60;99.90;;;;;;4832053;29;20060;-81
2024/02/16 08:40:19;;;;;;;3.05;1.52;;;10.60;99.90;;;;;;4832357;29;20050;-75
2024/02/16 08:42:47;;;;;;;1.75;1.35;;;10.60;99.90;;;;;;4829365;29;20620;-77
2024/02/16 08:45:16;;;;;;;2.10;1.40;;;10.60;99.90;;;;;;4814141;29;20050;-75
2024/02/16 08:47:44;;;;;;;2.45;1.35;;;10.70;99.90;;;;;;4812019;29;20065;-75
2024/02/16 08:50:13;;;;;;;5.68;2.72;;;10.70;99.90;;;;;;4812312;29;20046;-74
2024/02/16 08:52:40;;;;;;;2.75;2.10;;;10.70;99.90;;;;;;4797050;29;20080;-75
2024/02/16 08:55:07;;;;;;;2.45;1.77;;;10.60;99.90;;;;;;4811078;29;20062;-75
2024/02/16 08:57:34;;;;;;;2.33;1.92;;;10.60;99.90;;;;;;4795649;29;20081;-75
2024/02/16 09:00:01;;;;;;;3.20;1.27;;;10.70;99.90;;;;;;4812165;29;20103;-75
2024/02/16 09:02:28;;;;;;;3.72;1.45;;;10.70;99.90;;;;;;4811864;29;20514;-75
2024/02/16 09:04:55;;;;;;;6.18;2.53;;;10.70;99.90;;;;;;4811664;29;20050;-75
2024/02/16 09:07:24;;;;;;;6.30;2.45;;;10.60;99.90;;;;;;4812709;29;20576;-75
2024/02/16 09:09:51;;;;;;;3.95;1.88;;;10.60;99.90;;;;;;4811435;29;20050;-75
2024/02/16 09:12:18;;;;;;;2.90;1.83;;;10.60;99.90;;;;;;4811137;29;20485;-75
2024/02/16 09:14:44;;;;;;;2.17;1.58;;;10.50;99.90;;;;;;4813269;29;20070;-75
2024/02/16 09:17:13;;;;;;;2.33;1.80;;;10.50;99.90;;;;;;4812540;29;20528;-75
2024/02/16 09:19:41;;;;;;;2.05;1.85;;;10.60;99.90;;;;;;4796819;29;20078;-75
2024/02/16 09:22:08;;;;;;;2.05;1.63;;;10.60;99.90;;;;;;4811268;29;20061;-75
2024/02/16 09:24:35;;;;;;;3.28;1.83;;;10.60;99.90;;;;;;4795942;29;20857;-75
2024/02/16 09:27:04;;;;;;;2.83;1.80;;;10.70;99.90;;;;;;4810708;29;20069;-75
2024/02/16 09:29:32;;;;;;;2.95;1.80;;;10.70;99.90;;;;;;4811943;29;20050;-73
2024/02/16 09:31:59;;;;;;;3.80;2.08;;;10.70;99.90;;;;;;4811661;29;20078;-73
2024/02/16 09:34:27;;;;;;;1.85;1.40;;;10.70;99.90;;;;;;4811298;29;20569;-72
2024/02/16 09:36:54;;;;;;;2.35;1.90;;;10.80;99.90;;;;;;4810585;29;20145;-72
2024/02/16 09:39:21;;;;;;;2.97;1.92;;;10.80;99.90;;;;;;4811286;29;20078;-72
2024/02/16 09:41:52;;;;;;;2.58;1.75;;;10.80;99.90;;;;;;4809685;29;20081;-73
2024/02/16 09:44:20;;;;;;;3.80;2.10;;;10.90;99.90;;;;;;4811164;29;20222;-73
2024/02/16 09:46:46;;;;;;;2.97;1.98;;;10.90;99.90;;;;;;4818584;29;20050;-72
2024/02/16 09:49:15;;;;;;;4.15;1.92;;;11.00;99.90;;;;;;4820996;29;20470;-73
2024/02/16 09:51:45;;;;;;;4.95;2.40;;;11.00;99.90;;;;;;4819747;29;20050;-73
2024/02/16 09:54:13;;;;;;;4.63;2.47;;;11.10;99.90;;;;;;4821865;29;20056;-73
2024/02/16 09:56:39;;;;;;;4.22;2.20;;;11.10;99.90;;;;;;4820862;29;20165;-73
2024/02/16 09:59:08;;;;;;;3.30;2.10;;;11.10;99.90;;;;;;4823211;29;20156;-73
2024/02/16 10:01:35;;;;;;;3.20;2.05;;;11.10;99.90;;;;;;4824783;29;20042;-84
2024/02/16 10:04:08;;;;;;;2.88;1.77;;;11.20;99.90;;;;;;4831569;29;20582;-83
2024/02/16 10:06:49;;;;;;;3.05;1.67;;;11.30;99.90;;;;;;4834129;29;20145;-85
2024/02/16 10:09:32;;;;;;;1.85;1.40;;;11.30;99.90;;;;;;4832543;29;20888;-85
2024/02/16 10:12:00;;;;;;;3.23;2.33;;;11.30;99.90;;;;;;4835461;29;20497;-84
2024/02/16 10:14:28;;;;;;;2.67;1.85;;;11.40;99.90;;;;;;4835955;29;20396;-84
2024/02/16 10:17:06;;;;;;;2.38;1.60;;;11.40;99.90;;;;;;4830516;29;20050;-85
2024/02/16 10:19:41;;;;;;;3.13;1.75;;;11.60;99.90;;;;;;4833592;29;20061;-85
2024/02/16 10:22:10;;;;;;;3.03;1.75;;;11.60;99.90;;;;;;4817179;29;20065;-85
2024/02/16 10:24:39;;;;;;;2.60;1.73;;;11.80;99.90;;;;;;4808805;29;20098;-84
2024/02/16 10:27:14;;;;;;;3.78;1.65;;;11.80;99.90;;;;;;4825637;29;20372;-85
2024/02/16 10:29:49;;;;;;;1.95;1.35;;;11.80;99.90;;;;;;4832433;29;20050;-84
2024/02/16 10:32:16;;;;;;;4.90;2.00;;;11.80;99.90;;;;;;4834457;29;20118;-84
2024/02/16 10:34:45;;;;;;;3.05;2.00;;;11.80;99.90;;;;;;4836538;29;20058;-84
2024/02/16 10:37:14;;;;;;;1.67;1.40;;;11.70;99.90;;;;;;4838448;29;20069;-84
2024/02/16 10:39:44;;;;;;;2.95;1.80;;;11.80;99.90;;;;;;4837207;29;20285;-84
2024/02/16 10:42:10;;;;;;;3.08;1.65;;;11.70;99.90;;;;;;4834796;29;20586;-84
2024/02/16 10:44:38;;;;;;;3.22;1.70;;;11.80;99.90;;;;;;4835337;29;20594;-83
2024/02/16 10:47:05;;;;;;;3.13;1.70;;;11.80;99.90;;;;;;4835697;29;20049;-84
2024/02/16 10:49:33;;;;;;;2.63;1.40;;;11.90;99.90;;;;;;4837974;29;20058;-84
2024/02/16 10:52:00;;;;;;;2.28;1.48;;;11.90;99.90;;;;;;4838944;29;20060;-84
2024/02/16 10:54:30;;;;;;;4.32;1.80;;;11.90;99.90;;;;;;4837488;29;20054;-85
2024/02/16 10:56:57;;;;;;;2.30;1.42;;;11.90;99.90;;;;;;4838234;29;20053;-84
2024/02/16 10:59:25;;;;;;;2.30;1.45;;;12.00;99.90;;;;;;4836492;29;20130;-84
2024/02/16 11:01:59;;;;;;;2.38;1.70;;;12.00;99.90;;;;;;4838181;29;20057;-85
2024/02/16 11:04:39;;;;;;;2.35;1.70;;;12.10;99.90;;;;;;4838069;29;20129;-84
2024/02/16 11:07:16;;;;;;;2.80;1.70;;;12.20;99.90;;;;;;4836344;29;20116;-84
2024/02/16 11:09:46;;;;;;;3.45;1.80;;;12.30;99.90;;;;;;4833791;29;20466;-84
2024/02/16 11:12:15;;;;;;;2.58;1.42;;;12.40;99.90;;;;;;4819800;29;20629;-85
2024/02/16 11:14:43;;;;;;;3.25;1.40;;;12.50;99.90;;;;;;4827590;29;20428;-83
2024/02/16 11:17:14;;;;;;;3.75;2.15;;;12.50;99.90;;;;;;4830527;29;20054;-83
2024/02/16 11:19:44;;;;;;;2.25;1.10;;;12.50;99.90;;;;;;4848508;29;20599;-82
2024/02/16 11:22:14;;;;;;;4.18;1.50;;;12.50;99.90;;;;;;4834215;29;20417;-84
2024/02/16 11:24:46;;;;;;;2.25;1.27;;;12.50;99.90;;;;;;4832646;29;20111;-83
2024/02/16 11:27:15;;;;;;;1.92;1.15;;;12.50;99.90;;;;;;4832035;29;20046;-83
2024/02/16 11:29:43;;;;;;;3.80;1.70;;;12.50;99.90;;;;;;4833004;29;20145;-84
2024/02/16 11:32:10;;;;;;;4.25;1.30;;;12.50;99.90;;;;;;4816126;29;20077;-83
2024/02/16 11:34:40;;;;;;;2.53;1.30;;;12.60;99.90;;;;;;4815185;29;20630;-84
2024/02/16 11:37:09;;;;;;;2.75;1.20;;;12.70;99.90;;;;;;4832677;29;20497;-82
2024/02/16 11:39:38;;;;;;;4.05;1.40;;;12.80;99.90;;;;;;4833764;29;20111;-83
2024/02/16 11:42:12;;;;;;;2.58;1.45;;;12.90;99.90;;;;;;4832885;29;20512;-83
2024/02/16 11:44:49;;;;;;;2.50;1.58;;;13.00;99.90;;;;;;4832674;29;20140;-83
2024/02/16 11:47:19;;;;;;;1.60;1.50;;;13.20;99.90;;;;;;4832392;29;20054;-84
2024/02/16 11:49:47;;;;;;;1.50;1.13;;;13.40;99.90;;;;;;4833106;29;20054;-83
2024/02/16 11:52:14;;;;;;;1.52;1.02;;;13.60;99.90;;;;;;4833719;29;20481;-84
2024/02/16 11:54:44;;;;;;;1.25;1.05;;;13.70;99.90;;;;;;4828570;29;20128;-85
2024/02/16 11:57:11;;;;;;;2.28;1.52;;;13.80;99.90;;;;;;4829799;29;20069;-84
2024/02/16 11:59:40;;;;;;;1.55;1.20;;;13.70;99.90;;;;;;4834397;29;20117;-84
2024/02/16 12:02:18;;;;;;;1.23;1.13;;;13.80;99.90;;;;;;4835201;29;20085;-85
2024/02/16 12:04:51;;;;;;;1.27;1.08;;;13.80;99.90;;;;;;4811862;29;20058;-90
2024/02/16 12:07:36;;;;;;;;;;;13.80;99.90;;;;;;4832408;29;20054;-87
2024/02/16 12:10:07;;;;;;;1.90;1.20;;;13.70;99.90;;;;;;4820031;29;19977;-87
2024/02/16 12:12:34;;;;;;;1.67;1.33;;;13.60;99.90;;;;;;4833742;29;20054;-86
2024/02/16 12:15:01;;;;;;;1.50;1.10;;;13.50;99.90;;;;;;4850156;29;20089;-87
2024/02/16 12:17:29;;;;;;;1.17;0.98;;;13.60;99.90;;;;;;4853412;29;20057;-87
2024/02/16 12:19:59;;;;;;;1.27;1.00;;;13.90;99.90;;;;;;4838363;29;20054;-89
2024/02/16 12:22:27;;;;;;;1.60;1.23;;;14.00;99.90;;;;;;4823903;29;20054;-87
2024/02/16 12:24:55;;;;;;;1.45;1.00;;;14.00;99.90;;;;;;4835324;29;20060;-87
2024/02/16 12:27:24;;;;;;;1.60;1.20;;;14.00;99.90;;;;;;4834562;29;20049;-87
2024/02/16 12:29:53;;;;;;;2.10;1.30;;;14.00;99.90;;;;;;4837797;29;20060;-87
2024/02/16 12:32:20;;;;;;;2.13;1.10;;;14.10;99.90;;;;;;4820931;29;20061;-87
2024/02/16 12:34:47;;;;;;;2.28;1.35;;;14.20;99.90;;;;;;4817015;29;20054;-87
2024/02/16 12:37:16;;;;;;;1.40;0.98;;;14.30;99.90;;;;;;4837311;29;20042;-87
2024/02/16 12:39:42;;;;;;;1.27;0.88;;;14.50;99.90;;;;;;4837682;29;20053;-84
2024/02/16 12:42:10;;;;;;;1.60;1.10;;;14.70;99.90;;;;;;4834777;29;20060;-84
2024/02/16 12:44:36;;;;;;;1.30;0.98;;;14.80;99.90;;;;;;4823363;29;20058;-84
2024/02/16 12:47:03;;;;;;;1.90;0.80;;;14.80;99.90;;;;;;4822648;29;20125;-82
2024/02/16 12:49:30;;;;;;;0.98;0.80;;;14.70;99.90;;;;;;4834515;29;20057;-84
2024/02/16 12:51:58;;;;;;;0.95;0.70;;;14.50;99.90;;;;;;4833733;29;20046;-83